createdAt,value
2022-10-18T00:00:08.793Z,3.67
2022-10-18T00:02:58.096Z,3.85
2022-10-18T00:05:24.874Z,4.13
2022-10-18T00:07:51.837Z,4.88
2022-10-18T00:10:18.733Z,4.18
2022-10-18T00:15:13.403Z,4.20
2022-10-18T00:17:40.413Z,4.00
2022-10-18T00:20:08.427Z,3.70
2022-10-18T00:22:37.994Z,3.20
2022-10-18T00:25:06.326Z,4.03
2022-10-18T00:27:34.273Z,3.55
2022-10-18T00:30:01.086Z,4.80
2022-10-18T00:32:28.409Z,5.45
2022-10-18T00:34:55.409Z,4.38
2022-10-18T00:37:22.435Z,5.13
2022-10-18T00:39:49.259Z,5.30
2022-10-18T00:42:18.267Z,4.87
2022-10-18T00:44:45.038Z,4.10
2022-10-18T00:47:14.571Z,3.80
2022-10-18T00:49:46.253Z,3.60
2022-10-18T00:52:17.948Z,3.60
2022-10-18T00:54:47.172Z,3.47
2022-10-18T00:57:14.538Z,3.30
2022-10-18T00:59:42.993Z,3.10
2022-10-18T01:02:10.654Z,3.00
2022-10-18T01:04:37.590Z,3.20
2022-10-18T01:07:25.950Z,3.10
2022-10-18T01:10:14.676Z,3.15
2022-10-18T01:13:05.993Z,3.65
2022-10-18T01:16:14.234Z,3.55
2022-10-18T01:18:41.169Z,3.22
2022-10-18T01:21:10.892Z,4.93
2022-10-18T01:24:15.562Z,4.68
2022-10-18T01:26:53.897Z,5.32
2022-10-18T01:29:48.246Z,5.22
2022-10-18T01:32:28.731Z,4.05
2022-10-18T01:35:03.232Z,3.87
2022-10-18T01:37:31.697Z,3.90
2022-10-18T01:40:00.253Z,3.70
2022-10-18T01:42:27.936Z,3.63
2022-10-18T01:44:55.278Z,3.13
2022-10-18T01:47:23.329Z,3.73
2022-10-18T01:49:50.281Z,3.75
2022-10-18T01:52:17.273Z,5.07
2022-10-18T01:54:51.782Z,5.30
2022-10-18T01:57:25.607Z,5.50
2022-10-18T02:00:22.243Z,5.63
2022-10-18T02:03:14.978Z,4.82
2022-10-18T02:05:52.697Z,4.03
2022-10-18T02:08:23.714Z,3.20
2022-10-18T02:10:55.973Z,3.20
2022-10-18T02:13:27.223Z,3.30
2022-10-18T02:15:59.875Z,3.15
2022-10-18T02:18:37.070Z,2.90
2022-10-18T02:21:06.992Z,3.35
2022-10-18T02:23:34.687Z,3.45
2022-10-18T02:26:02.149Z,3.60
2022-10-18T02:28:29.552Z,3.83
2022-10-18T02:31:27.258Z,3.70
2022-10-18T02:33:58.643Z,4.40
2022-10-18T02:36:31.919Z,4.40
2022-10-18T02:39:04.284Z,4.20
2022-10-18T02:41:32.251Z,3.85
2022-10-18T02:43:59.550Z,3.00
2022-10-18T02:48:54.321Z,4.90
2022-10-18T02:51:21.474Z,5.20
2022-10-18T02:53:48.292Z,5.63
2022-10-18T02:56:15.203Z,5.25
2022-10-18T02:58:42.399Z,5.63
2022-10-18T03:01:09.438Z,6.18
2022-10-18T03:03:36.286Z,6.20
2022-10-18T03:06:03.350Z,5.93
2022-10-18T03:08:30.241Z,6.32
2022-10-18T03:10:57.269Z,6.13
2022-10-18T03:13:24.132Z,5.68
2022-10-18T03:15:51.166Z,4.97
2022-10-18T03:18:17.923Z,4.53
2022-10-18T03:20:44.885Z,3.78
2022-10-18T03:23:11.642Z,3.15
2022-10-18T03:25:40.545Z,3.95
2022-10-18T03:28:09.733Z,4.30
2022-10-18T03:30:36.788Z,4.50
2022-10-18T03:33:03.674Z,4.22
2022-10-18T03:35:30.637Z,4.57
2022-10-18T03:37:57.422Z,4.82
2022-10-18T03:40:24.408Z,5.70
2022-10-18T03:42:51.193Z,6.15
2022-10-18T03:45:18.144Z,6.35
2022-10-18T03:47:44.970Z,5.63
2022-10-18T03:50:12.078Z,5.03
2022-10-18T03:52:38.895Z,4.23
2022-10-18T03:55:06.468Z,3.92
2022-10-18T03:57:33.508Z,3.97
2022-10-18T04:00:00.421Z,3.85
2022-10-18T04:02:27.177Z,4.32
2022-10-18T04:04:54.119Z,4.40
2022-10-18T04:07:20.856Z,3.33
2022-10-18T04:09:47.776Z,4.20
2022-10-18T04:12:14.489Z,3.70
2022-10-18T04:14:41.462Z,5.22
2022-10-18T04:17:08.518Z,6.90
2022-10-18T04:19:35.584Z,5.85
2022-10-18T04:22:02.417Z,5.32
2022-10-18T04:24:29.426Z,4.93
2022-10-18T04:26:56.213Z,4.05
2022-10-18T04:29:23.175Z,3.87
2022-10-18T04:31:50.030Z,4.55
2022-10-18T04:34:17.234Z,3.67
2022-10-18T04:36:44.152Z,3.35
2022-10-18T04:39:11.232Z,3.67
2022-10-18T04:41:38.096Z,3.40
2022-10-18T04:44:05.445Z,3.47
2022-10-18T04:46:32.276Z,3.60
2022-10-18T04:49:01.209Z,3.30
2022-10-18T04:51:31.233Z,3.20
2022-10-18T04:53:58.452Z,3.07
2022-10-18T04:56:25.315Z,3.15
2022-10-18T04:58:52.306Z,3.25
2022-10-18T05:01:19.219Z,3.58
2022-10-18T05:03:46.615Z,3.70
2022-10-18T05:06:13.657Z,3.77
2022-10-18T05:08:40.667Z,4.07
2022-10-18T05:11:07.450Z,4.20
2022-10-18T05:13:34.485Z,3.63
2022-10-18T05:16:02.527Z,3.97
2022-10-18T05:18:29.707Z,4.40
2022-10-18T05:20:56.613Z,4.45
2022-10-18T05:23:23.827Z,4.35
2022-10-18T05:25:50.685Z,4.05
2022-10-18T05:31:07.373Z,4.70
2022-10-18T05:33:34.861Z,5.90
2022-10-18T05:36:01.751Z,5.88
2022-10-18T05:38:31.099Z,5.50
2022-10-18T05:40:58.854Z,5.55
2022-10-18T05:43:29.040Z,5.87
2022-10-18T05:45:55.865Z,6.18
2022-10-18T05:48:23.484Z,7.03
2022-10-18T05:50:50.220Z,7.50
2022-10-18T05:53:36.695Z,6.32
2022-10-18T05:56:04.337Z,5.90
2022-10-18T05:58:31.559Z,6.80
2022-10-18T06:01:00.838Z,5.85
2022-10-18T06:03:28.477Z,5.28
2022-10-18T06:06:07.398Z,4.72
2022-10-18T06:08:35.564Z,5.70
2022-10-18T06:11:17.438Z,5.47
2022-10-18T06:13:46.780Z,5.38
2022-10-18T06:16:15.314Z,5.00
2022-10-18T06:18:42.978Z,6.03
2022-10-18T06:21:10.653Z,4.93
2022-10-18T06:23:37.623Z,5.20
2022-10-18T06:26:07.221Z,4.75
2022-10-18T06:28:36.154Z,5.55
2022-10-18T06:31:04.370Z,4.70
2022-10-18T06:33:32.196Z,5.67
2022-10-18T06:36:00.959Z,6.13
2022-10-18T06:38:28.926Z,5.20
2022-10-18T06:40:56.607Z,5.55
2022-10-18T06:43:24.159Z,5.57
2022-10-18T06:45:51.550Z,5.03
2022-10-18T06:50:54.729Z,5.72
2022-10-18T06:53:21.682Z,5.78
2022-10-18T06:55:48.733Z,6.40
2022-10-18T06:58:15.934Z,6.50
2022-10-18T07:00:42.858Z,8.10
2022-10-18T07:03:09.873Z,9.68
2022-10-18T07:05:37.001Z,10.23
2022-10-18T07:08:04.265Z,8.05
2022-10-18T07:10:31.085Z,10.87
2022-10-18T07:13:13.614Z,8.52
2022-10-18T07:15:44.643Z,8.40
2022-10-18T07:18:11.808Z,8.50
2022-10-18T07:20:38.612Z,7.93
2022-10-18T07:23:09.608Z,9.60
2022-10-18T07:25:36.397Z,9.82
2022-10-18T07:28:04.038Z,9.10
2022-10-18T07:30:30.728Z,8.50
2022-10-18T07:32:57.700Z,12.00
2022-10-18T07:35:24.428Z,9.97
2022-10-18T07:37:51.426Z,10.02
2022-10-18T07:40:18.387Z,9.38
2022-10-18T07:42:45.372Z,9.65
2022-10-18T07:45:13.656Z,9.75
2022-10-18T07:47:41.141Z,9.30
2022-10-18T07:50:08.729Z,9.32
2022-10-18T07:52:35.677Z,11.13
2022-10-18T07:55:02.521Z,9.18
2022-10-18T07:57:29.702Z,10.88
2022-10-18T07:59:57.166Z,13.30
2022-10-18T08:02:24.295Z,15.52
2022-10-18T08:04:51.063Z,14.23
2022-10-18T08:07:18.015Z,14.80
2022-10-18T08:09:44.869Z,14.20
2022-10-18T08:12:11.884Z,19.20
2022-10-18T08:14:38.587Z,16.55
2022-10-18T08:17:05.811Z,19.13
2022-10-18T08:19:32.771Z,22.35
2022-10-18T08:21:59.672Z,23.42
2022-10-18T08:24:26.878Z,25.57
2022-10-18T08:26:53.838Z,29.92
2022-10-18T08:29:24.179Z,25.92
2022-10-18T08:31:52.788Z,33.08
2022-10-18T08:34:20.054Z,23.35
2022-10-18T08:36:47.212Z,26.53
2022-10-18T08:39:13.956Z,30.23
2022-10-18T08:41:53.558Z,22.98
2022-10-18T08:44:32.508Z,24.83
2022-10-18T08:47:11.802Z,12.65
2022-10-18T08:49:47.526Z,11.93
2022-10-18T08:52:37.102Z,13.07
2022-10-18T08:55:12.584Z,12.88
2022-10-18T08:57:39.580Z,12.32
2022-10-18T09:00:16.364Z,13.27
2022-10-18T09:03:00.309Z,12.30
2022-10-18T09:05:30.093Z,14.00
2022-10-18T09:08:24.471Z,12.85
2022-10-18T09:13:50.438Z,15.20
2022-10-18T09:16:24.607Z,12.90
2022-10-18T09:19:04.180Z,12.18
2022-10-18T09:21:52.988Z,15.13
2022-10-18T09:24:38.249Z,12.93
2022-10-18T09:27:19.134Z,11.48
2022-10-18T09:30:09.239Z,10.30
2022-10-18T09:32:51.006Z,12.13
2022-10-18T09:35:49.207Z,12.18
2022-10-18T09:38:19.441Z,10.68
2022-10-18T09:41:16.102Z,12.77
2022-10-18T09:43:48.694Z,10.93
2022-10-18T09:46:18.866Z,10.70
2022-10-18T09:48:51.713Z,8.55
2022-10-18T09:51:26.508Z,8.00
2022-10-18T09:54:36.303Z,8.70
2022-10-18T09:57:23.792Z,5.40
2022-10-18T09:59:51.268Z,7.32
2022-10-18T10:02:23.494Z,5.88
2022-10-18T10:04:51.533Z,5.63
2022-10-18T10:07:28.609Z,6.38
2022-10-18T10:10:07.239Z,9.57
2022-10-18T10:12:37.619Z,6.57
2022-10-18T10:15:19.083Z,4.75
2022-10-18T10:18:04.335Z,7.13
2022-10-18T10:20:42.430Z,6.38
2022-10-18T10:23:16.470Z,9.47
2022-10-18T10:25:43.495Z,7.57
2022-10-18T10:28:16.476Z,7.55
2022-10-18T10:30:43.535Z,5.90
2022-10-18T10:33:32.543Z,5.55
2022-10-18T10:36:00.785Z,4.67
2022-10-18T10:38:30.265Z,5.25
2022-10-18T10:40:58.398Z,4.57
2022-10-18T10:43:39.249Z,5.47
2022-10-18T10:46:13.046Z,5.30
2022-10-18T10:49:34.602Z,5.07
2022-10-18T10:52:08.128Z,5.47
2022-10-18T10:54:50.290Z,5.80
2022-10-18T10:57:28.284Z,6.40
2022-10-18T10:59:59.920Z,4.88
2022-10-18T11:02:31.183Z,5.90
2022-10-18T11:05:24.671Z,4.60
2022-10-18T11:07:56.176Z,4.45
2022-10-18T11:10:26.611Z,4.65
2022-10-18T11:13:03.874Z,4.60
2022-10-18T11:15:40.368Z,4.67
2022-10-18T11:18:14.659Z,5.03
2022-10-18T11:20:46.075Z,4.50
2022-10-18T11:23:15.998Z,4.70
2022-10-18T11:25:48.976Z,3.80
2022-10-18T11:28:30.417Z,4.60
2022-10-18T11:30:58.878Z,4.18
2022-10-18T11:34:07.727Z,3.70
2022-10-18T11:36:36.832Z,3.50
2022-10-18T11:39:50.104Z,3.80
2022-10-18T11:42:40.012Z,3.80
2022-10-18T11:45:35.022Z,4.60
2022-10-18T11:48:09.884Z,3.33
2022-10-18T11:50:51.822Z,3.63
2022-10-18T11:53:41.589Z,3.70
2022-10-18T11:56:28.381Z,3.47
2022-10-18T11:59:42.778Z,3.90
2022-10-18T12:02:43.045Z,3.13
2022-10-18T12:05:26.169Z,3.30
2022-10-18T12:08:25.443Z,3.20
2022-10-18T12:11:06.376Z,3.60
2022-10-18T12:13:39.463Z,4.40
2022-10-18T12:16:08.679Z,4.10
2022-10-18T12:18:41.591Z,4.55
2022-10-18T12:21:08.572Z,4.22
2022-10-18T12:23:45.363Z,4.43
2022-10-18T12:26:12.687Z,3.70
2022-10-18T12:28:58.402Z,4.45
2022-10-18T12:31:36.897Z,3.53
2022-10-18T12:34:28.691Z,4.03
2022-10-18T12:37:05.164Z,3.90
2022-10-18T12:40:05.362Z,3.65
2022-10-18T12:42:40.613Z,3.30
2022-10-18T12:45:35.411Z,3.63
2022-10-18T12:48:06.944Z,3.70
2022-10-18T12:50:37.228Z,3.63
2022-10-18T12:53:07.640Z,3.42
2022-10-18T12:55:40.153Z,3.38
2022-10-18T12:58:30.356Z,3.22
2022-10-18T13:01:02.729Z,3.05
2022-10-18T13:03:39.637Z,3.30
2022-10-18T13:06:07.075Z,3.17
2022-10-18T13:08:39.641Z,3.45
2022-10-18T13:11:09.404Z,3.00
2022-10-18T13:14:08.193Z,2.92
2022-10-18T13:16:56.391Z,3.33
2022-10-18T13:19:32.608Z,3.28
2022-10-18T13:22:08.017Z,3.05
2022-10-18T13:24:44.845Z,3.70
2022-10-18T13:27:47.390Z,3.22
2022-10-18T13:30:39.215Z,3.40
2022-10-18T13:33:38.606Z,5.10
2022-10-18T13:36:24.932Z,4.93
2022-10-18T13:38:57.808Z,3.72
2022-10-18T13:41:32.734Z,3.08
2022-10-18T13:44:37.899Z,2.60
2022-10-18T13:47:04.877Z,3.45
2022-10-18T13:49:43.849Z,3.40
2022-10-18T13:52:32.490Z,3.20
2022-10-18T13:55:43.101Z,3.15
2022-10-18T13:58:23.407Z,3.07
2022-10-18T14:01:22.194Z,3.22
2022-10-18T14:04:17.124Z,3.38
2022-10-18T14:06:47.112Z,2.70
2022-10-18T14:12:41.716Z,2.93
2022-10-18T14:15:20.874Z,3.08
2022-10-18T14:18:15.063Z,2.80
2022-10-18T14:21:01.327Z,2.92
2022-10-18T14:23:37.901Z,3.20
2022-10-18T14:26:14.273Z,2.80
2022-10-18T14:28:59.011Z,2.58
2022-10-18T14:31:27.677Z,2.80
2022-10-18T14:33:58.303Z,2.92
2022-10-18T14:36:29.590Z,2.50
2022-10-18T14:39:03.855Z,2.60
2022-10-18T14:41:47.245Z,3.13
2022-10-18T14:44:13.978Z,3.30
2022-10-18T14:46:48.555Z,3.58
2022-10-18T14:49:16.125Z,3.00
2022-10-18T14:51:45.362Z,2.80
2022-10-18T14:54:18.809Z,2.65
2022-10-18T14:56:46.230Z,2.40
2022-10-18T14:59:18.132Z,2.70
2022-10-18T15:01:54.359Z,2.40
2022-10-18T15:04:26.260Z,2.40
2022-10-18T15:06:55.798Z,2.20
2022-10-18T15:09:24.097Z,2.40
2022-10-18T15:11:51.796Z,2.53
2022-10-18T15:14:20.321Z,2.28
2022-10-18T15:16:50.511Z,2.67
2022-10-18T15:19:17.171Z,2.50
2022-10-18T15:22:30.707Z,2.47
2022-10-18T15:25:11.042Z,2.35
2022-10-18T15:30:19.465Z,1.97
2022-10-18T15:32:58.745Z,1.80
2022-10-18T15:35:28.895Z,2.20
2022-10-18T15:37:58.372Z,2.10
2022-10-18T15:40:28.030Z,1.90
2022-10-18T15:43:00.635Z,2.10
2022-10-18T15:45:33.949Z,2.35
2022-10-18T15:48:06.996Z,1.90
2022-10-18T15:50:50.105Z,1.55
2022-10-18T15:53:49.339Z,2.00
2022-10-18T15:56:34.895Z,1.57
2022-10-18T15:59:12.620Z,2.20
2022-10-18T16:01:44.317Z,2.10
2022-10-18T16:04:32.788Z,1.95
2022-10-18T16:07:00.357Z,1.90
2022-10-18T16:09:28.808Z,1.90
2022-10-18T16:11:57.343Z,2.03
2022-10-18T16:14:25.798Z,1.73
2022-10-18T16:16:55.507Z,2.00
2022-10-18T16:19:23.311Z,2.10
2022-10-18T16:21:51.812Z,2.63
2022-10-18T16:24:19.031Z,2.20
2022-10-18T16:26:46.664Z,2.30
2022-10-18T16:29:15.238Z,2.20
2022-10-18T16:31:42.485Z,2.47
2022-10-18T16:34:11.991Z,2.57
2022-10-18T16:36:38.674Z,2.60
2022-10-18T16:39:10.287Z,2.60
2022-10-18T16:41:36.920Z,2.47
2022-10-18T16:44:03.806Z,2.42
2022-10-18T16:46:33.079Z,2.30
2022-10-18T16:49:00.667Z,2.40
2022-10-18T16:51:27.472Z,2.45
2022-10-18T16:53:54.733Z,2.53
2022-10-18T16:56:27.432Z,2.45
2022-10-18T16:58:54.920Z,2.70
2022-10-18T17:01:23.559Z,2.80
2022-10-18T17:03:53.880Z,2.55
2022-10-18T17:06:32.255Z,3.53
2022-10-18T17:08:59.725Z,3.30
2022-10-18T17:11:29.606Z,3.87
2022-10-18T17:13:56.402Z,3.33
2022-10-18T17:19:06.410Z,3.25
2022-10-18T17:21:33.569Z,2.90
2022-10-18T17:24:04.350Z,2.87
2022-10-18T17:26:31.562Z,3.00
2022-10-18T17:29:05.320Z,4.35
2022-10-18T17:31:33.057Z,3.90
2022-10-18T17:34:01.875Z,3.83
2022-10-18T17:36:32.861Z,3.70
2022-10-18T17:39:00.567Z,4.13
2022-10-18T17:41:27.640Z,3.30
2022-10-18T17:43:54.884Z,3.80
2022-10-18T17:46:23.545Z,3.47
2022-10-18T17:48:50.484Z,3.70
2022-10-18T17:51:17.632Z,3.72
2022-10-18T17:53:44.873Z,4.85
2022-10-18T17:56:12.401Z,6.13
2022-10-18T17:58:39.695Z,8.05
2022-10-18T18:01:10.780Z,8.63
2022-10-18T18:03:38.164Z,9.15
2022-10-18T18:06:15.858Z,7.95
2022-10-18T18:08:42.912Z,6.80
2022-10-18T18:11:09.935Z,6.40
2022-10-18T18:13:37.696Z,8.43
2022-10-18T18:16:19.713Z,7.32
2022-10-18T18:18:48.870Z,7.18
2022-10-18T18:21:16.444Z,8.45
2022-10-18T18:23:43.853Z,7.95
2022-10-18T18:26:10.837Z,6.80
2022-10-18T18:28:37.993Z,6.32
2022-10-18T18:31:09.466Z,6.00
2022-10-18T18:33:37.660Z,5.47
2022-10-18T18:36:05.212Z,6.15
2022-10-18T18:38:33.757Z,6.20
2022-10-18T18:41:16.736Z,5.95
2022-10-18T18:43:46.602Z,5.45
2022-10-18T18:46:13.302Z,6.35
2022-10-18T18:48:40.916Z,5.38
2022-10-18T18:51:11.782Z,5.18
2022-10-18T18:53:44.143Z,9.17
2022-10-18T18:56:14.188Z,9.30
2022-10-18T18:58:45.152Z,8.50
2022-10-18T19:01:17.140Z,8.75
2022-10-18T19:03:46.169Z,6.88
2022-10-18T19:06:19.297Z,6.50
2022-10-18T19:08:47.024Z,7.60
2022-10-18T19:11:19.146Z,5.55
2022-10-18T19:13:47.505Z,5.88
2022-10-18T19:16:19.509Z,5.07
2022-10-18T19:18:51.352Z,4.67
2022-10-18T19:21:18.387Z,4.22
2022-10-18T19:23:45.495Z,4.93
2022-10-18T19:26:19.263Z,4.32
2022-10-18T19:28:46.126Z,5.30
2022-10-18T19:31:12.786Z,5.77
2022-10-18T19:33:48.464Z,5.70
2022-10-18T19:36:23.083Z,5.40
2022-10-18T19:38:51.386Z,6.13
2022-10-18T19:41:18.456Z,6.38
2022-10-18T19:43:46.163Z,7.77
2022-10-18T19:46:12.961Z,8.38
2022-10-18T19:48:40.038Z,6.05
2022-10-18T19:51:09.372Z,6.90
2022-10-18T19:53:36.777Z,7.28
2022-10-18T19:56:05.344Z,7.37
2022-10-18T19:58:33.087Z,5.60
2022-10-18T20:01:00.459Z,6.70
2022-10-18T20:03:31.483Z,7.70
2022-10-18T20:06:01.887Z,7.13
2022-10-18T20:08:34.237Z,7.20
2022-10-18T20:11:06.758Z,6.05
2022-10-18T20:13:34.624Z,6.28
2022-10-18T20:16:02.327Z,5.07
2022-10-18T20:18:29.202Z,6.20
2022-10-18T20:20:55.884Z,6.40
2022-10-18T20:23:23.160Z,6.53
2022-10-18T20:26:01.463Z,5.93
2022-10-18T20:28:29.167Z,6.53
2022-10-18T20:31:10.596Z,6.40
2022-10-18T20:33:38.122Z,6.00
2022-10-18T20:36:10.505Z,5.00
2022-10-18T20:38:40.112Z,4.50
2022-10-18T20:41:28.744Z,5.95
2022-10-18T20:43:57.832Z,5.10
2022-10-18T20:46:25.310Z,5.60
2022-10-18T20:48:53.435Z,4.40
2022-10-18T20:51:21.174Z,4.20
2022-10-18T20:53:48.509Z,4.10
2022-10-18T20:56:20.086Z,3.75
2022-10-18T20:58:49.234Z,5.37
2022-10-18T21:01:24.340Z,4.75
2022-10-18T21:03:53.527Z,5.00
2022-10-18T21:06:25.083Z,5.45
2022-10-18T21:08:57.185Z,4.07
2022-10-18T21:11:24.707Z,2.97
2022-10-18T21:13:53.604Z,3.40
2022-10-18T21:16:20.831Z,3.88
2022-10-18T21:18:48.298Z,3.72
2022-10-18T21:21:18.307Z,3.63
2022-10-18T21:23:45.728Z,3.47
2022-10-18T21:26:18.146Z,3.30
2022-10-18T21:29:03.318Z,3.40
2022-10-18T21:31:32.640Z,3.47
2022-10-18T21:34:02.888Z,5.90
2022-10-18T21:36:35.964Z,6.40
2022-10-18T21:39:08.368Z,5.90
2022-10-18T21:41:36.318Z,6.05
2022-10-18T21:44:08.234Z,5.43
2022-10-18T21:46:37.494Z,4.68
2022-10-18T21:49:04.342Z,6.17
2022-10-18T21:51:30.972Z,5.85
2022-10-18T21:53:58.547Z,5.05
2022-10-18T21:56:28.119Z,4.10
2022-10-18T21:58:55.830Z,4.07
2022-10-18T22:01:28.412Z,4.63
2022-10-18T22:03:56.634Z,5.10
2022-10-18T22:06:23.824Z,4.50
2022-10-18T22:08:55.655Z,6.10
2022-10-18T22:11:26.240Z,5.70
2022-10-18T22:13:53.465Z,6.80
2022-10-18T22:16:20.421Z,6.25
2022-10-18T22:18:48.362Z,7.88
2022-10-18T22:21:17.053Z,8.75
2022-10-18T22:23:46.157Z,8.60
2022-10-18T22:26:15.789Z,9.00
2022-10-18T22:28:44.996Z,6.25
2022-10-18T22:31:17.391Z,8.38
2022-10-18T22:33:44.889Z,7.82
2022-10-18T22:36:12.583Z,8.20
2022-10-18T22:38:40.032Z,8.73
2022-10-18T22:41:11.544Z,9.90
2022-10-18T22:43:38.549Z,10.00
2022-10-18T22:46:08.911Z,10.27
2022-10-18T22:48:36.309Z,8.80
2022-10-18T22:51:04.426Z,9.50
2022-10-18T22:53:32.140Z,10.15
2022-10-18T22:55:59.365Z,10.43
2022-10-18T22:58:26.357Z,10.30
2022-10-18T23:01:00.635Z,9.73
2022-10-18T23:03:28.092Z,7.80
2022-10-18T23:05:54.836Z,6.80
2022-10-18T23:08:21.801Z,6.50
2022-10-18T23:10:53.192Z,9.93
2022-10-18T23:13:20.120Z,11.23
2022-10-18T23:15:46.761Z,11.33
2022-10-18T23:18:13.622Z,12.27
2022-10-18T23:20:40.290Z,9.35
2022-10-18T23:23:07.430Z,11.00
2022-10-18T23:25:37.910Z,11.40
2022-10-18T23:28:05.552Z,10.20
2022-10-18T23:30:32.356Z,12.15
2022-10-18T23:32:59.912Z,12.60
2022-10-18T23:35:29.332Z,12.80
2022-10-18T23:37:56.161Z,12.27
2022-10-18T23:40:22.820Z,10.17
2022-10-18T23:42:49.649Z,9.68
2022-10-18T23:45:16.382Z,12.32
2022-10-18T23:47:43.241Z,13.23
2022-10-18T23:50:09.906Z,13.70
2022-10-18T23:52:36.787Z,12.37
2022-10-18T23:55:03.759Z,13.73
2022-10-18T23:57:30.870Z,13.85
2022-10-18T23:59:57.741Z,13.18
